createdAt,value
2023-04-06T11:45:50.351Z,9.762754
2023-04-06T11:46:50.349Z,9.762712
2023-04-06T11:47:50.330Z,9.762720
2023-04-06T11:48:50.311Z,9.762491
2023-04-06T11:49:50.261Z,9.762454
2023-04-06T11:50:50.258Z,9.762454
2023-04-06T11:51:50.311Z,9.762629
2023-04-06T11:52:50.274Z,9.762615
2023-04-06T11:53:50.263Z,9.762506
2023-04-06T11:54:50.240Z,9.762589
2023-04-06T11:55:50.263Z,9.762599
2023-04-06T11:56:50.241Z,9.762589
2023-04-06T11:57:51.204Z,9.762362
2023-04-06T11:58:50.200Z,9.762362
2023-04-06T11:59:50.198Z,9.762362
2023-04-06T12:00:50.229Z,9.762362
2023-04-06T12:01:50.278Z,9.762362
2023-04-06T12:02:50.296Z,9.762362
2023-04-06T12:03:50.434Z,9.762362
2023-04-06T12:04:50.279Z,9.762362
2023-04-06T12:05:50.144Z,9.762362
2023-04-06T12:06:50.149Z,9.762362
2023-04-06T12:07:50.142Z,9.762362
2023-04-06T12:08:50.139Z,9.761993
2023-04-06T12:09:50.113Z,9.762056
2023-04-06T12:10:50.084Z,9.762510
2023-04-06T12:11:50.179Z,9.762630
2023-04-06T12:12:50.050Z,9.762709
2023-04-06T12:13:50.052Z,9.762719
2023-04-06T12:14:50.126Z,9.762774
2023-04-06T12:15:52.121Z,9.763291
2023-04-06T12:16:50.069Z,9.762483
2023-04-06T12:17:50.051Z,9.762467
2023-04-06T12:18:49.996Z,9.762685
2023-04-06T12:19:49.988Z,9.762780
2023-04-06T12:20:49.988Z,9.762780
2023-04-06T12:21:49.996Z,9.762780
2023-04-06T12:22:49.972Z,9.762780
2023-04-06T12:23:49.968Z,9.762780
2023-04-06T12:24:49.930Z,9.762780
2023-04-06T12:25:49.945Z,9.762780
2023-04-06T12:26:53.932Z,9.762780
2023-04-06T12:27:51.936Z,9.762634
2023-04-06T12:28:50.076Z,9.762692
2023-04-06T12:29:50.039Z,9.762704
2023-04-06T12:30:49.899Z,9.762593
2023-04-06T12:31:50.088Z,9.763631
2023-04-06T12:32:51.287Z,9.763828
2023-04-06T12:33:50.851Z,9.764026
2023-04-06T12:34:49.892Z,9.764026
2023-04-06T12:35:49.829Z,9.761535
2023-04-06T12:36:54.115Z,9.761769
2023-04-06T12:37:49.932Z,9.761895
2023-04-06T12:39:44.709Z,9.768002
2023-04-06T12:39:49.763Z,9.768254
2023-04-06T12:40:49.735Z,9.770100
2023-04-06T12:41:49.833Z,9.772232
2023-04-06T12:42:49.761Z,9.773427
2023-04-06T12:43:49.721Z,9.773427
2023-04-06T12:44:49.721Z,9.773427
2023-04-06T12:45:50.704Z,9.773427
2023-04-06T12:46:49.754Z,9.785594
2023-04-06T12:47:49.853Z,9.787449
2023-04-06T12:48:49.672Z,9.791307
2023-04-06T12:49:49.651Z,9.793620
2023-04-06T12:50:49.683Z,9.793620
2023-04-06T12:51:49.813Z,9.793620
2023-04-06T12:52:49.639Z,9.793620
2023-04-06T12:53:49.624Z,9.793620
2023-04-06T12:54:51.575Z,9.793620
2023-04-06T12:55:50.706Z,9.793620
2023-04-06T12:56:49.618Z,9.793620
2023-04-06T12:57:49.773Z,9.793620
2023-04-06T12:58:50.626Z,9.793620
2023-04-06T12:59:49.666Z,9.793620
2023-04-06T13:01:04.562Z,9.793620
2023-04-06T13:01:49.736Z,9.793620
2023-04-06T13:02:49.738Z,9.793620
2023-04-06T13:03:49.596Z,9.793620
2023-04-06T13:04:49.561Z,9.793620
2023-04-06T13:05:49.526Z,9.793620
2023-04-06T13:06:49.533Z,9.793620
2023-04-06T13:07:49.499Z,9.793620
2023-04-06T13:08:49.503Z,9.762710
2023-04-06T13:09:49.580Z,9.762630
2023-04-06T13:10:49.481Z,9.762774
2023-04-06T13:11:49.505Z,9.762774
2023-04-06T13:12:49.462Z,9.762699
2023-04-06T13:13:49.443Z,9.762588
2023-04-06T13:14:49.438Z,9.762823
2023-04-06T13:15:49.415Z,9.762656
2023-04-06T13:16:49.490Z,9.762486
2023-04-06T13:17:49.418Z,9.762325
2023-04-06T13:18:49.389Z,9.762314
2023-04-06T13:19:49.414Z,9.762375
2023-04-06T13:20:49.393Z,9.762920
2023-04-06T13:21:49.396Z,9.762551
2023-04-06T13:22:49.358Z,9.762546
2023-04-06T13:23:49.364Z,9.762546
2023-04-06T13:24:49.335Z,9.762546
2023-04-06T13:25:49.326Z,9.762546
2023-04-06T13:26:49.346Z,9.762427
2023-04-06T13:27:49.320Z,9.762542
2023-04-06T13:28:49.306Z,9.762650
2023-04-06T13:29:49.283Z,9.762670
2023-04-06T13:30:49.276Z,9.762703
2023-04-06T13:31:49.312Z,9.762782
2023-04-06T13:32:49.309Z,9.762774
2023-04-06T13:33:49.252Z,9.762720
2023-04-06T13:34:49.241Z,9.762707
2023-04-06T13:35:49.252Z,9.762710
2023-04-06T13:36:49.276Z,9.762753
2023-04-06T13:37:49.213Z,9.762881
2023-04-06T13:38:49.207Z,9.762932
2023-04-06T13:39:49.198Z,9.762775
2023-04-06T13:40:49.183Z,9.762809
2023-04-06T13:41:49.187Z,9.763124
2023-04-06T13:42:49.174Z,9.762595
2023-04-06T13:43:49.159Z,9.762701
2023-04-06T13:44:49.157Z,9.762748
2023-04-06T13:45:49.243Z,9.762695
2023-04-06T13:46:49.153Z,9.762815
2023-04-06T13:47:49.175Z,9.762879
2023-04-06T13:48:49.144Z,9.762804
2023-04-06T13:49:49.105Z,9.762859
2023-04-06T13:50:49.106Z,9.762738
2023-04-06T13:51:49.102Z,9.762821
2023-04-06T13:52:49.141Z,9.761617
2023-04-06T13:53:49.101Z,9.761617
2023-04-06T13:54:49.072Z,9.761617
2023-04-06T13:55:49.046Z,9.761617
2023-04-06T13:56:49.047Z,9.761617
2023-04-06T13:57:49.049Z,9.763272
2023-04-06T13:58:49.013Z,9.762972
2023-04-06T13:59:48.997Z,9.762778
2023-04-06T14:00:49.192Z,9.762803
2023-04-06T14:01:49.005Z,9.762831
2023-04-06T14:02:49.025Z,9.762980
2023-04-06T14:03:49.634Z,9.762895
2023-04-06T14:04:48.950Z,9.762796
2023-04-06T14:05:48.968Z,9.762858
2023-04-06T14:06:48.951Z,9.762826
2023-04-06T14:07:48.904Z,9.762761
2023-04-06T14:08:48.931Z,9.762795
2023-04-06T14:09:48.897Z,9.763042
2023-04-06T14:10:48.933Z,9.762847
2023-04-06T14:11:48.892Z,9.762907
2023-04-06T14:12:48.872Z,9.762835
2023-04-06T14:13:48.846Z,9.762712
2023-04-06T14:14:48.833Z,9.762820
2023-04-06T14:15:48.831Z,9.762869
2023-04-06T14:16:48.862Z,9.763019
2023-04-06T14:17:48.925Z,9.763010
2023-04-06T14:18:48.797Z,9.762629
2023-04-06T14:19:48.795Z,9.763022
2023-04-06T14:20:48.806Z,9.762823
2023-04-06T14:21:48.771Z,9.762751
2023-04-06T14:22:48.784Z,9.762716
2023-04-06T14:23:48.752Z,9.762826
2023-04-06T14:24:48.736Z,9.762787
2023-04-06T14:25:48.742Z,9.762713
2023-04-06T14:26:48.732Z,9.762861
2023-04-06T14:27:48.741Z,9.762740
2023-04-06T14:28:48.716Z,9.763096
2023-04-06T14:29:48.694Z,9.762718
2023-04-06T14:30:48.708Z,9.762758
2023-04-06T14:31:48.675Z,9.762379
2023-04-06T14:32:48.726Z,9.762735
2023-04-06T14:33:48.721Z,9.762559
2023-04-06T14:34:48.638Z,9.762856
2023-04-06T14:35:48.647Z,9.762986
2023-04-06T14:36:48.717Z,9.762867
2023-04-06T14:37:48.653Z,9.762936
2023-04-06T14:38:48.642Z,9.762888
2023-04-06T14:39:48.594Z,9.762693
2023-04-06T14:40:48.604Z,9.762709
2023-04-06T14:41:49.821Z,9.762530
2023-04-06T14:42:48.574Z,9.762562
2023-04-06T14:43:48.779Z,9.762470
2023-04-06T14:44:48.600Z,9.762909
2023-04-06T14:45:48.549Z,9.762976
2023-04-06T14:46:48.646Z,9.762774
2023-04-06T14:47:48.595Z,9.762654
2023-04-06T14:48:48.553Z,9.762373
2023-04-06T14:49:48.500Z,9.762328
2023-04-06T14:50:48.491Z,9.762520
2023-04-06T14:51:48.469Z,9.762775
2023-04-06T14:52:48.486Z,9.762745
2023-04-06T14:53:48.456Z,9.762917
2023-04-06T14:54:48.440Z,9.762779
2023-04-06T14:55:48.452Z,9.762555
2023-04-06T14:56:48.445Z,9.762656
2023-04-06T14:57:48.471Z,9.762737
2023-04-06T14:58:48.421Z,9.762790
2023-04-06T14:59:48.427Z,9.762694
2023-04-06T15:00:48.410Z,9.762332
2023-04-06T15:01:48.476Z,9.762466
2023-04-06T15:02:48.513Z,9.762592
2023-04-06T15:03:48.670Z,9.762735
2023-04-06T15:04:48.377Z,9.762994
2023-04-06T15:05:48.382Z,9.762687
2023-04-06T15:06:48.329Z,9.762670
2023-04-06T15:07:48.359Z,9.762728
2023-04-06T15:08:48.333Z,9.762745
2023-04-06T15:09:48.337Z,9.762812
2023-04-06T15:10:48.300Z,9.762863
2023-04-06T15:11:48.442Z,9.762992
2023-04-06T15:12:50.086Z,9.762503
2023-04-06T15:13:48.449Z,9.762553
2023-04-06T15:14:48.432Z,9.763154
2023-04-06T15:15:48.352Z,9.763277
2023-04-06T15:16:48.361Z,9.762682
2023-04-06T15:17:49.026Z,9.762784
2023-04-06T15:18:53.291Z,9.762891
2023-04-06T15:19:49.297Z,9.762874
2023-04-06T15:20:48.333Z,9.762740
2023-04-06T15:21:48.295Z,9.762671
2023-04-06T15:22:48.273Z,9.762822
2023-04-06T15:23:48.432Z,9.762767
2023-04-06T15:24:48.319Z,9.762792
2023-04-06T15:25:49.177Z,9.762818
2023-04-06T15:26:48.245Z,9.762747
2023-04-06T15:27:48.225Z,9.762641
2023-04-06T15:28:48.254Z,9.762610
2023-04-06T15:29:48.198Z,9.762612
2023-04-06T15:30:48.185Z,9.762630
2023-04-06T15:31:48.269Z,9.762980
2023-04-06T15:32:48.132Z,9.763869
2023-04-06T15:33:48.244Z,9.762730
2023-04-06T15:34:48.828Z,9.762749
2023-04-06T15:35:48.133Z,9.762820
2023-04-06T15:36:48.061Z,9.762756
2023-04-06T15:37:48.046Z,9.762728
2023-04-06T15:38:48.027Z,9.762701
2023-04-06T15:39:48.011Z,9.762616
2023-04-06T15:40:48.020Z,9.762634
2023-04-06T15:41:48.003Z,9.762845
2023-04-06T15:42:47.992Z,9.762750
2023-04-06T15:43:48.080Z,9.762758
2023-04-06T15:44:47.978Z,9.762800
2023-04-06T15:45:47.977Z,9.762794
2023-04-06T15:46:48.031Z,9.762787
2023-04-06T15:47:48.050Z,9.763062
2023-04-06T15:48:48.129Z,9.763055
2023-04-06T15:49:47.937Z,9.762736
2023-04-06T15:50:48.133Z,9.762663
2023-04-06T15:51:47.901Z,9.762699
2023-04-06T15:52:47.872Z,9.762667
2023-04-06T15:53:47.907Z,9.762598
2023-04-06T15:54:47.839Z,9.762860
2023-04-06T15:55:47.838Z,9.762515
2023-04-06T15:56:47.844Z,9.762358
2023-04-06T15:57:47.854Z,9.762755
2023-04-06T15:58:48.119Z,9.763070
2023-04-06T15:59:47.816Z,9.762831
2023-04-06T16:00:47.794Z,9.762531
2023-04-06T16:01:47.907Z,9.763042
2023-04-06T16:02:47.953Z,9.762502
2023-04-06T16:03:47.882Z,9.762530
2023-04-06T16:04:47.916Z,9.762243
2023-04-06T16:05:53.896Z,9.762724
2023-04-06T16:06:49.726Z,9.763144
2023-04-06T16:07:47.749Z,9.763144
2023-04-06T16:08:48.130Z,9.763144
2023-04-06T16:09:47.733Z,9.763144
2023-04-06T16:10:47.730Z,9.763144
2023-04-06T16:11:47.705Z,9.762331
2023-04-06T16:12:47.702Z,9.762868
2023-04-06T16:13:54.626Z,9.763371
2023-04-06T16:14:48.809Z,9.763371
2023-04-06T16:15:47.681Z,9.763371
2023-04-06T16:16:47.761Z,9.762661
2023-04-06T16:17:47.737Z,9.762740
2023-04-06T16:18:47.618Z,9.762681
2023-04-06T16:19:47.609Z,9.762625
2023-04-06T16:20:47.618Z,9.761754
2023-04-06T16:21:47.626Z,9.761754
2023-04-06T16:22:47.607Z,9.761754
2023-04-06T16:23:47.762Z,9.761754
2023-04-06T16:24:47.558Z,9.761754
2023-04-06T16:25:47.577Z,9.761754
2023-04-06T16:26:47.553Z,9.761754
2023-04-06T16:27:47.542Z,9.761754
2023-04-06T16:28:47.606Z,9.761754
2023-04-06T16:29:47.523Z,9.761754
2023-04-06T16:30:47.501Z,9.761754
2023-04-06T16:31:47.632Z,9.761754
2023-04-06T16:32:48.007Z,9.761754
2023-04-06T16:33:48.299Z,9.761754
2023-04-06T16:34:47.482Z,9.761754
2023-04-06T16:35:47.492Z,9.761754
2023-04-06T16:36:47.479Z,9.761754
2023-04-06T16:37:47.468Z,9.761754
2023-04-06T16:38:47.443Z,9.761754
2023-04-06T16:39:47.414Z,9.761754
2023-04-06T16:40:47.399Z,9.761754
2023-04-06T16:41:47.417Z,9.761754
2023-04-06T16:42:47.448Z,9.761754
2023-04-06T16:43:48.604Z,9.761754
2023-04-06T16:44:47.425Z,9.761754
2023-04-06T16:45:47.400Z,9.761754
2023-04-06T16:46:47.353Z,9.761754
2023-04-06T16:47:47.372Z,9.761754
2023-04-06T16:48:47.350Z,9.762607
2023-04-06T16:49:47.338Z,9.762608
2023-04-06T16:50:47.309Z,9.762683
2023-04-06T16:51:47.331Z,9.762613
2023-04-06T16:52:47.312Z,9.762709
2023-04-06T16:53:47.500Z,9.762317
2023-04-06T16:54:47.268Z,9.762745
2023-04-06T16:55:47.262Z,9.762751
2023-04-06T16:56:47.252Z,9.762624
2023-04-06T16:57:47.274Z,9.762761
2023-04-06T16:58:47.367Z,9.762708
2023-04-06T16:59:47.225Z,9.762593
2023-04-06T17:00:47.263Z,9.762697
2023-04-06T17:01:47.315Z,9.762534
2023-04-06T17:02:47.521Z,9.762726
2023-04-06T17:03:47.240Z,9.762664
2023-04-06T17:04:47.205Z,9.762821
2023-04-06T17:05:47.173Z,9.762759
2023-04-06T17:06:47.149Z,9.762791
2023-04-06T17:07:47.132Z,9.762639
2023-04-06T17:08:47.403Z,9.762220
2023-04-06T17:09:47.117Z,9.761963
2023-04-06T17:10:59.088Z,9.762153
2023-04-06T17:11:49.160Z,9.762863
2023-04-06T17:12:47.082Z,9.763087
2023-04-06T17:13:47.343Z,9.762737
2023-04-06T17:14:47.067Z,9.762311
2023-04-06T17:15:47.039Z,9.762557
2023-04-06T17:16:47.104Z,9.762745
2023-04-06T17:17:47.051Z,9.762981
2023-04-06T17:18:47.015Z,9.762745
2023-04-06T17:19:47.046Z,9.762621
2023-04-06T17:20:47.000Z,9.762753
2023-04-06T17:21:46.996Z,9.762817
2023-04-06T17:22:47.018Z,9.762894
2023-04-06T17:23:47.088Z,9.763124
2023-04-06T17:24:46.962Z,9.763198
2023-04-06T17:25:46.958Z,9.763093
2023-04-06T17:26:46.960Z,9.763034
2023-04-06T17:27:46.919Z,9.762924
2023-04-06T17:28:46.920Z,9.762845
2023-04-06T17:29:46.923Z,9.762644
2023-04-06T17:30:46.923Z,9.762979
2023-04-06T17:31:46.894Z,9.763653
2023-04-06T17:32:46.929Z,9.763442
2023-04-06T17:33:47.103Z,9.763533
2023-04-06T17:34:46.903Z,9.763008
2023-04-06T17:35:46.891Z,9.762796
2023-04-06T17:36:46.848Z,9.762842
2023-04-06T17:37:46.834Z,9.762877
2023-04-06T17:38:46.843Z,9.762958
2023-04-06T17:39:46.834Z,9.762941
2023-04-06T17:40:46.831Z,9.762969
2023-04-06T17:41:46.845Z,9.762845
2023-04-06T17:42:46.825Z,9.762883
2023-04-06T17:43:46.946Z,9.762958
2023-04-06T17:44:47.203Z,9.762958
2023-04-06T17:45:46.805Z,9.762958
2023-04-06T17:46:46.840Z,9.762958
2023-04-06T17:47:46.794Z,9.762958
2023-04-06T17:48:46.732Z,9.762958
2023-04-06T17:49:46.705Z,9.762958
2023-04-06T17:50:46.694Z,9.762958
2023-04-06T17:51:46.707Z,9.762958
2023-04-06T17:52:46.694Z,9.762958
2023-04-06T17:53:46.698Z,9.762958
2023-04-06T17:54:46.660Z,9.762958
2023-04-06T17:55:46.699Z,9.762958
2023-04-06T17:56:46.661Z,9.762958
2023-04-06T17:57:46.628Z,9.763019
2023-04-06T17:58:46.637Z,9.762914
2023-04-06T17:59:46.608Z,9.762605
2023-04-06T18:00:46.640Z,9.762712
2023-04-06T18:01:46.688Z,9.762918
2023-04-06T18:02:46.632Z,9.762876
2023-04-06T18:03:46.601Z,9.762646
2023-04-06T18:04:46.659Z,9.762711
2023-04-06T18:05:46.560Z,9.762342
2023-04-06T18:06:46.565Z,9.762617
2023-04-06T18:07:46.547Z,9.763494
2023-04-06T18:08:46.522Z,9.763036
2023-04-06T18:09:46.520Z,9.762733
2023-04-06T18:10:46.510Z,9.762912
2023-04-06T18:11:46.508Z,9.762995
2023-04-06T18:12:46.483Z,9.762783
2023-04-06T18:13:46.508Z,9.762339
2023-04-06T18:14:46.475Z,9.762376
2023-04-06T18:15:46.517Z,9.762792
2023-04-06T18:16:46.452Z,9.762449
2023-04-06T18:17:46.486Z,9.762613
2023-04-06T18:18:46.429Z,9.762979
2023-04-06T18:19:46.441Z,9.763264
2023-04-06T18:20:46.431Z,9.763246
2023-04-06T18:21:46.397Z,9.763065
2023-04-06T18:22:46.408Z,9.762903
2023-04-06T18:23:46.418Z,9.762862
2023-04-06T18:24:46.368Z,9.762776
2023-04-06T18:25:46.358Z,9.763868
2023-04-06T18:26:46.344Z,9.763577
2023-04-06T18:27:46.454Z,9.763356
2023-04-06T18:28:46.352Z,9.763535
2023-04-06T18:29:46.317Z,9.763487
2023-04-06T18:30:46.309Z,9.763165
2023-04-06T18:31:46.314Z,9.763365
2023-04-06T18:32:46.353Z,9.763458
2023-04-06T18:33:46.308Z,9.763355
2023-04-06T18:34:46.288Z,9.762969
2023-04-06T18:35:46.260Z,9.763060
2023-04-06T18:36:46.271Z,9.763264
2023-04-06T18:37:46.262Z,9.763633
2023-04-06T18:38:46.268Z,9.763391
2023-04-06T18:39:46.194Z,9.763084
2023-04-06T18:40:46.212Z,9.763192
2023-04-06T18:41:46.174Z,9.763674
2023-04-06T18:42:46.233Z,9.764355
2023-04-06T18:43:46.199Z,9.763395
2023-04-06T18:44:46.184Z,9.763779
2023-04-06T18:45:46.234Z,9.763750
2023-04-06T18:46:46.276Z,9.763212
2023-04-06T18:47:46.228Z,9.763363
2023-04-06T18:48:46.999Z,9.763746
2023-04-06T18:49:46.119Z,9.763990
2023-04-06T18:50:46.099Z,9.763791
2023-04-06T18:51:46.073Z,9.763535
2023-04-06T18:52:46.083Z,9.763916
2023-04-06T18:53:46.083Z,9.763891
2023-04-06T18:54:46.059Z,9.763891
2023-04-06T18:55:46.049Z,9.763891
2023-04-06T18:56:46.041Z,9.763487
2023-04-06T18:57:46.041Z,9.763788
2023-04-06T18:58:46.029Z,9.763764
2023-04-06T18:59:45.993Z,9.764439
2023-04-06T19:00:46.011Z,9.763796
2023-04-06T19:01:46.015Z,9.763828
2023-04-06T19:02:46.117Z,9.761642
2023-04-06T19:03:46.167Z,9.758662
2023-04-06T19:04:46.103Z,9.758662
2023-04-06T19:05:45.947Z,9.758662
2023-04-06T19:06:45.958Z,9.761185
2023-04-06T19:07:45.937Z,9.760808
2023-04-06T19:08:45.965Z,9.760371
2023-04-06T19:09:45.905Z,9.760401
2023-04-06T19:10:46.938Z,9.760241
2023-04-06T19:11:45.894Z,9.754033
2023-04-06T19:12:45.882Z,9.756907
2023-04-06T19:13:45.889Z,9.756924
2023-04-06T19:14:45.860Z,9.758678
2023-04-06T19:15:45.844Z,9.760551
2023-04-06T19:16:45.885Z,9.762452
2023-04-06T19:17:45.842Z,9.762426
2023-04-06T19:18:45.876Z,9.762479
2023-04-06T19:19:45.807Z,9.762663
2023-04-06T19:20:45.794Z,9.762645
2023-04-06T19:21:45.811Z,9.762588
2023-04-06T19:22:45.780Z,9.762427
2023-04-06T19:23:45.784Z,9.762698
2023-04-06T19:24:45.737Z,9.762701
2023-04-06T19:25:45.737Z,9.762709
2023-04-06T19:26:45.857Z,9.762665
2023-04-06T19:27:45.725Z,9.762861
2023-04-06T19:28:45.753Z,9.762896
2023-04-06T19:29:45.710Z,9.762930
2023-04-06T19:30:45.703Z,9.762853
2023-04-06T19:31:45.739Z,9.762963
2023-04-06T19:32:45.684Z,9.762858
2023-04-06T19:33:45.689Z,9.762854
2023-04-06T19:34:45.664Z,9.762792
2023-04-06T19:35:45.658Z,9.762870
2023-04-06T19:36:45.644Z,9.762766
2023-04-06T19:37:45.642Z,9.762774
2023-04-06T19:38:45.632Z,9.762836
2023-04-06T19:39:45.617Z,9.762770
2023-04-06T19:40:45.583Z,9.762797
2023-04-06T19:41:45.621Z,9.762668
2023-04-06T19:42:45.575Z,9.762874
2023-04-06T19:43:45.558Z,9.762879
2023-04-06T19:44:45.608Z,9.762931
2023-04-06T19:45:45.551Z,9.762783
2023-04-06T19:46:45.583Z,9.762877
2023-04-06T19:47:45.574Z,9.762750
2023-04-06T19:48:45.536Z,9.762926
2023-04-06T19:49:45.535Z,9.762892
2023-04-06T19:50:45.495Z,9.762894
2023-04-06T19:51:45.516Z,9.763161
2023-04-06T19:52:45.478Z,9.763099
2023-04-06T19:53:45.452Z,9.763019
2023-04-06T19:54:45.447Z,9.762998
2023-04-06T19:55:45.448Z,9.762716
2023-04-06T19:56:45.435Z,9.762794
2023-04-06T19:57:45.432Z,9.762777
2023-04-06T19:58:45.397Z,9.763275
2023-04-06T19:59:45.423Z,9.763274
2023-04-06T20:00:45.417Z,9.762882
2023-04-06T20:01:45.563Z,9.763306
2023-04-06T20:02:45.422Z,9.762953
2023-04-06T20:03:45.484Z,9.762832
2023-04-06T20:04:45.410Z,9.762865
2023-04-06T20:05:45.334Z,9.762740
2023-04-06T20:06:45.340Z,9.762963
2023-04-06T20:07:45.327Z,9.763238
2023-04-06T20:08:45.329Z,9.762877
2023-04-06T20:09:45.313Z,9.762972
2023-04-06T20:10:45.293Z,9.762865
2023-04-06T20:11:45.292Z,9.762885
2023-04-06T20:12:45.298Z,9.762966
2023-04-06T20:13:45.259Z,9.762925
2023-04-06T20:14:45.267Z,9.762866
2023-04-06T20:15:45.267Z,9.762862
2023-04-06T20:16:45.281Z,9.763156
2023-04-06T20:17:45.259Z,9.762695
2023-04-06T20:18:45.220Z,9.762768
2023-04-06T20:19:45.434Z,9.762712
2023-04-06T20:20:45.276Z,9.762723
2023-04-06T20:21:45.201Z,9.762736
2023-04-06T20:22:45.171Z,9.762721
2023-04-06T20:23:45.996Z,9.762834
2023-04-06T20:24:45.172Z,9.762806
2023-04-06T20:25:45.135Z,9.762852
2023-04-06T20:26:45.128Z,9.762828
2023-04-06T20:27:45.158Z,9.762703
2023-04-06T20:28:45.154Z,9.762568
2023-04-06T20:29:45.157Z,9.762721
2023-04-06T20:30:45.198Z,9.762733
2023-04-06T20:31:45.134Z,9.762897
2023-04-06T20:32:45.137Z,9.762955
2023-04-06T20:33:45.131Z,9.763077
2023-04-06T20:34:45.118Z,9.762902
2023-04-06T20:35:45.183Z,9.762768
2023-04-06T20:36:45.056Z,9.763078
2023-04-06T20:37:45.043Z,9.763303
2023-04-06T20:38:45.033Z,9.762704
2023-04-06T20:39:45.027Z,9.762780
2023-04-06T20:40:45.031Z,9.763169
2023-04-06T20:41:45.002Z,9.762984
2023-04-06T20:42:44.993Z,9.762530
2023-04-06T20:43:44.974Z,9.762686
2023-04-06T20:44:44.992Z,9.762728
2023-04-06T20:45:44.938Z,9.762830
2023-04-06T20:46:45.011Z,9.762721
2023-04-06T20:47:45.011Z,9.762765
2023-04-06T20:48:44.973Z,9.762827
2023-04-06T20:49:45.028Z,9.762857
2023-04-06T20:50:45.494Z,9.762802
2023-04-06T20:51:44.895Z,9.762838
2023-04-06T20:52:44.898Z,9.762922
2023-04-06T20:53:44.935Z,9.762872
2023-04-06T20:54:44.871Z,9.762811
2023-04-06T20:55:45.645Z,9.762963
2023-04-06T20:56:44.864Z,9.762889
2023-04-06T20:57:46.060Z,9.762874
2023-04-06T20:58:45.813Z,9.762938
2023-04-06T20:59:44.854Z,9.762762
2023-04-06T21:00:44.809Z,9.762834
2023-04-06T21:01:44.942Z,9.763022
2023-04-06T21:02:44.967Z,9.763019
2023-04-06T21:03:45.143Z,9.762735
2023-04-06T21:04:44.916Z,9.762854
2023-04-06T21:05:44.763Z,9.762879
2023-04-06T21:06:44.757Z,9.762885
2023-04-06T21:07:44.755Z,9.762843
2023-04-06T21:08:44.794Z,9.762781
2023-04-06T21:09:44.719Z,9.762853
2023-04-06T21:10:44.701Z,9.762706
2023-04-06T21:11:44.713Z,9.762795
2023-04-06T21:12:44.716Z,9.762824
2023-04-06T21:13:44.698Z,9.762794
2023-04-06T21:14:44.678Z,9.762554
2023-04-06T21:15:44.687Z,9.762720
2023-04-06T21:16:44.635Z,9.762842
2023-04-06T21:18:18.971Z,9.762854
2023-04-06T21:19:18.461Z,9.762877
2023-04-06T21:19:44.591Z,9.762738
2023-04-06T21:21:18.491Z,9.762744
2023-04-06T21:21:44.604Z,9.762868
2023-04-06T21:22:44.572Z,9.762960
2023-04-06T21:23:44.543Z,9.762878
2023-04-06T21:24:44.600Z,9.762663
2023-04-06T21:25:44.515Z,9.762709
2023-04-06T21:26:44.546Z,9.762713
2023-04-06T21:27:44.529Z,9.762618
2023-04-06T21:28:44.501Z,9.762651
2023-04-06T21:29:44.491Z,9.762672
2023-04-06T21:30:44.524Z,9.762700
2023-04-06T21:31:44.998Z,9.762630
2023-04-06T21:32:44.473Z,9.762774
2023-04-06T21:33:44.496Z,9.762865
2023-04-06T21:34:44.596Z,9.762761
2023-04-06T21:35:44.452Z,9.762668
2023-04-06T21:36:44.479Z,9.762759
2023-04-06T21:37:44.417Z,9.762695
2023-04-06T21:38:44.392Z,9.762767
2023-04-06T21:39:44.411Z,9.762813
2023-04-06T21:40:44.376Z,9.763066
2023-04-06T21:41:44.368Z,9.762799
2023-04-06T21:42:44.381Z,9.762730
2023-04-06T21:43:44.350Z,9.762737
2023-04-06T21:44:44.349Z,9.762771
2023-04-06T21:45:44.335Z,9.762766
2023-04-06T21:46:44.419Z,9.762837
2023-04-06T21:47:44.326Z,9.762759
2023-04-06T21:48:44.328Z,9.762938
2023-04-06T21:49:44.290Z,9.762886
2023-04-06T21:50:44.278Z,9.762786
2023-04-06T21:51:44.276Z,9.762466
2023-04-06T21:52:44.278Z,9.762696
2023-04-06T21:53:44.236Z,9.762775
2023-04-06T21:54:44.243Z,9.762839
2023-04-06T21:55:44.206Z,9.762732
2023-04-06T21:56:44.191Z,9.762775
2023-04-06T21:57:44.213Z,9.762843
2023-04-06T21:58:44.179Z,9.762800
2023-04-06T21:59:44.200Z,9.762600
2023-04-06T22:00:44.165Z,9.762778
2023-04-06T22:01:44.216Z,9.762773
2023-04-06T22:02:45.268Z,9.762967
2023-04-06T22:03:44.338Z,9.762918
2023-04-06T22:04:44.278Z,9.762825
2023-04-06T22:05:44.131Z,9.763252
2023-04-06T22:06:44.093Z,9.763099
2023-04-06T22:07:44.106Z,9.762874
2023-04-06T22:08:44.073Z,9.761313
2023-04-06T22:09:44.108Z,9.761890
2023-04-06T22:10:44.083Z,9.762407
2023-04-06T22:11:44.122Z,9.762598
2023-04-06T22:12:44.123Z,9.762324
2023-04-06T22:13:44.076Z,9.763468
2023-04-06T22:14:44.114Z,9.762132
2023-04-06T22:15:44.047Z,9.773258
2023-04-06T22:16:44.158Z,9.777046
2023-04-06T22:17:44.066Z,9.778813
2023-04-06T22:18:44.076Z,9.772084
2023-04-06T22:19:44.072Z,9.762580
2023-04-06T22:20:44.010Z,9.762580
2023-04-06T22:21:44.001Z,9.762608
2023-04-06T22:22:43.967Z,9.762735
2023-04-06T22:23:43.971Z,9.762836
2023-04-06T22:24:43.983Z,9.762815
2023-04-06T22:25:43.976Z,9.762667
2023-04-06T22:26:43.950Z,9.762687
2023-04-06T22:27:43.952Z,9.762952
2023-04-06T22:28:43.914Z,9.766367
2023-04-06T22:29:43.978Z,9.765596
2023-04-06T22:30:43.911Z,9.763114
2023-04-06T22:31:46.062Z,9.762654
2023-04-06T22:32:43.952Z,9.762674
2023-04-06T22:33:43.905Z,9.762925
2023-04-06T22:34:43.882Z,9.763474
2023-04-06T22:35:43.902Z,9.762534
2023-04-06T22:36:43.866Z,9.763162
2023-04-06T22:37:43.867Z,9.762367
2023-04-06T22:38:43.861Z,9.763203
2023-04-06T22:39:43.880Z,9.762723
2023-04-06T22:40:43.816Z,9.762895
2023-04-06T22:41:43.784Z,9.762888
2023-04-06T22:42:43.805Z,9.762977
2023-04-06T22:43:43.746Z,9.763099
2023-04-06T22:44:43.748Z,9.762788
2023-04-06T22:45:43.799Z,9.762359
2023-04-06T22:46:43.765Z,9.762634
2023-04-06T22:47:43.933Z,9.762645
2023-04-06T22:48:43.724Z,9.762789
2023-04-06T22:49:43.719Z,9.762994
2023-04-06T22:50:44.620Z,9.763186
2023-04-06T22:51:43.694Z,9.762766
2023-04-06T22:52:43.704Z,9.762862
2023-04-06T22:53:43.661Z,9.762424
2023-04-06T22:54:44.606Z,9.762476
2023-04-06T22:55:43.684Z,9.762586
2023-04-06T22:56:43.656Z,9.762870
2023-04-06T22:57:43.624Z,9.762526
2023-04-06T22:58:43.668Z,9.762718
2023-04-06T22:59:43.610Z,9.763140
2023-04-06T23:00:43.613Z,9.762724
2023-04-06T23:01:43.658Z,9.762942
